sensor_id;sensor_type;location;lat;lon;timestamp;temperature;humidity
15630;DHT22;7914;50.842;0.166;2023-05-17T00:01:51;9.40;95.30
15630;DHT22;7914;50.842;0.166;2023-05-17T00:04:17;9.40;95.80
15630;DHT22;7914;50.842;0.166;2023-05-17T00:06:43;9.40;95.30
15630;DHT22;7914;50.842;0.166;2023-05-17T00:09:09;9.40;95.50
15630;DHT22;7914;50.842;0.166;2023-05-17T00:11:35;9.30;95.30
15630;DHT22;7914;50.842;0.166;2023-05-17T00:14:01;9.30;95.70
15630;DHT22;7914;50.842;0.166;2023-05-17T00:16:26;9.20;96.00
15630;DHT22;7914;50.842;0.166;2023-05-17T00:18:52;9.20;96.20
15630;DHT22;7914;50.842;0.166;2023-05-17T00:21:18;9.20;96.20
15630;DHT22;7914;50.842;0.166;2023-05-17T00:23:44;9.10;95.90
15630;DHT22;7914;50.842;0.166;2023-05-17T00:26:10;9.00;96.20
15630;DHT22;7914;50.842;0.166;2023-05-17T00:28:35;9.00;97.40
15630;DHT22;7914;50.842;0.166;2023-05-17T00:31:01;8.90;97.40
15630;DHT22;7914;50.842;0.166;2023-05-17T00:33:26;8.90;97.30
15630;DHT22;7914;50.842;0.166;2023-05-17T00:35:52;8.90;97.10
15630;DHT22;7914;50.842;0.166;2023-05-17T00:38:18;8.90;97.20
15630;DHT22;7914;50.842;0.166;2023-05-17T00:40:44;8.90;97.40
15630;DHT22;7914;50.842;0.166;2023-05-17T00:43:09;8.90;97.10
15630;DHT22;7914;50.842;0.166;2023-05-17T00:45:35;8.90;96.70
15630;DHT22;7914;50.842;0.166;2023-05-17T00:48:01;8.80;97.30
15630;DHT22;7914;50.842;0.166;2023-05-17T00:50:27;8.70;96.90
15630;DHT22;7914;50.842;0.166;2023-05-17T00:52:53;8.60;96.90
15630;DHT22;7914;50.842;0.166;2023-05-17T00:55:20;8.60;97.50
15630;DHT22;7914;50.842;0.166;2023-05-17T00:57:46;8.50;98.20
15630;DHT22;7914;50.842;0.166;2023-05-17T01:00:12;8.50;98.80
15630;DHT22;7914;50.842;0.166;2023-05-17T01:02:38;8.50;98.80
15630;DHT22;7914;50.842;0.166;2023-05-17T01:05:04;8.40;98.80
15630;DHT22;7914;50.842;0.166;2023-05-17T01:07:31;8.40;98.70
15630;DHT22;7914;50.842;0.166;2023-05-17T01:09:56;8.40;98.60
15630;DHT22;7914;50.842;0.166;2023-05-17T01:12:45;8.40;98.40
15630;DHT22;7914;50.842;0.166;2023-05-17T01:15:23;8.40;98.00
15630;DHT22;7914;50.842;0.166;2023-05-17T01:18:30;8.30;98.00
15630;DHT22;7914;50.842;0.166;2023-05-17T01:21:00;8.20;98.60
15630;DHT22;7914;50.842;0.166;2023-05-17T01:23:49;8.20;98.90
15630;DHT22;7914;50.842;0.166;2023-05-17T01:26:19;8.20;99.10
15630;DHT22;7914;50.842;0.166;2023-05-17T01:28:52;8.20;99.40
15630;DHT22;7914;50.842;0.166;2023-05-17T01:31:19;8.20;99.60
15630;DHT22;7914;50.842;0.166;2023-05-17T01:33:45;8.20;99.60
15630;DHT22;7914;50.842;0.166;2023-05-17T01:36:11;8.10;99.60
15630;DHT22;7914;50.842;0.166;2023-05-17T01:38:36;8.10;99.60
15630;DHT22;7914;50.842;0.166;2023-05-17T01:43:49;8.10;99.10
15630;DHT22;7914;50.842;0.166;2023-05-17T01:48:55;8.00;99.10
15630;DHT22;7914;50.842;0.166;2023-05-17T01:51:23;8.00;99.30
15630;DHT22;7914;50.842;0.166;2023-05-17T01:53:56;7.90;99.30
15630;DHT22;7914;50.842;0.166;2023-05-17T01:56:33;7.90;99.00
15630;DHT22;7914;50.842;0.166;2023-05-17T01:59:01;7.80;98.60
15630;DHT22;7914;50.842;0.166;2023-05-17T02:01:29;7.80;99.20
15630;DHT22;7914;50.842;0.166;2023-05-17T02:03:56;7.70;99.70
15630;DHT22;7914;50.842;0.166;2023-05-17T02:06:22;7.70;99.90
15630;DHT22;7914;50.842;0.166;2023-05-17T02:08:48;7.70;100.00
15630;DHT22;7914;50.842;0.166;2023-05-17T02:11:14;7.70;100.00
15630;DHT22;7914;50.842;0.166;2023-05-17T02:13:39;7.60;100.00
15630;DHT22;7914;50.842;0.166;2023-05-17T02:16:05;7.70;100.00
15630;DHT22;7914;50.842;0.166;2023-05-17T02:18:31;7.80;100.00
15630;DHT22;7914;50.842;0.166;2023-05-17T02:20:59;7.80;100.00
15630;DHT22;7914;50.842;0.166;2023-05-17T02:23:25;7.80;100.00
15630;DHT22;7914;50.842;0.166;2023-05-17T02:25:51;7.90;100.00
15630;DHT22;7914;50.842;0.166;2023-05-17T02:28:17;7.90;100.00
15630;DHT22;7914;50.842;0.166;2023-05-17T02:30:42;7.90;100.00
15630;DHT22;7914;50.842;0.166;2023-05-17T02:33:08;7.90;100.00
15630;DHT22;7914;50.842;0.166;2023-05-17T02:35:34;7.90;100.00
15630;DHT22;7914;50.842;0.166;2023-05-17T02:38:00;7.80;100.00
15630;DHT22;7914;50.842;0.166;2023-05-17T02:40:26;7.80;100.00
15630;DHT22;7914;50.842;0.166;2023-05-17T02:42:51;7.80;100.00
15630;DHT22;7914;50.842;0.166;2023-05-17T02:45:17;7.70;100.00
15630;DHT22;7914;50.842;0.166;2023-05-17T02:47:43;7.70;100.00
15630;DHT22;7914;50.842;0.166;2023-05-17T02:50:08;7.70;100.00
15630;DHT22;7914;50.842;0.166;2023-05-17T02:52:34;7.70;100.00
15630;DHT22;7914;50.842;0.166;2023-05-17T02:55:00;7.60;100.00
15630;DHT22;7914;50.842;0.166;2023-05-17T02:57:26;7.60;100.00
15630;DHT22;7914;50.842;0.166;2023-05-17T02:59:52;7.50;100.00
15630;DHT22;7914;50.842;0.166;2023-05-17T03:02:17;7.50;100.00
15630;DHT22;7914;50.842;0.166;2023-05-17T03:04:43;7.40;100.00
15630;DHT22;7914;50.842;0.166;2023-05-17T03:07:08;7.40;100.00
15630;DHT22;7914;50.842;0.166;2023-05-17T03:09:34;7.40;100.00
15630;DHT22;7914;50.842;0.166;2023-05-17T03:12:00;7.30;100.00
15630;DHT22;7914;50.842;0.166;2023-05-17T03:14:26;7.20;100.00
15630;DHT22;7914;50.842;0.166;2023-05-17T03:16:52;7.10;100.00
15630;DHT22;7914;50.842;0.166;2023-05-17T03:19:17;7.00;100.00
15630;DHT22;7914;50.842;0.166;2023-05-17T03:21:43;6.90;100.00
15630;DHT22;7914;50.842;0.166;2023-05-17T03:24:09;6.90;100.00
15630;DHT22;7914;50.842;0.166;2023-05-17T03:26:34;6.80;100.00
15630;DHT22;7914;50.842;0.166;2023-05-17T03:29:00;6.70;100.00
15630;DHT22;7914;50.842;0.166;2023-05-17T03:31:26;6.70;100.00
15630;DHT22;7914;50.842;0.166;2023-05-17T03:33:52;6.70;100.00
15630;DHT22;7914;50.842;0.166;2023-05-17T03:36:17;6.70;100.00
15630;DHT22;7914;50.842;0.166;2023-05-17T03:38:43;6.70;100.00
15630;DHT22;7914;50.842;0.166;2023-05-17T03:41:09;6.80;100.00
15630;DHT22;7914;50.842;0.166;2023-05-17T03:43:35;6.70;100.00
15630;DHT22;7914;50.842;0.166;2023-05-17T03:46:01;6.80;100.00
15630;DHT22;7914;50.842;0.166;2023-05-17T03:48:26;6.80;100.00
15630;DHT22;7914;50.842;0.166;2023-05-17T03:50:52;6.70;100.00
15630;DHT22;7914;50.842;0.166;2023-05-17T03:53:18;6.70;100.00
15630;DHT22;7914;50.842;0.166;2023-05-17T03:55:43;6.70;100.00
15630;DHT22;7914;50.842;0.166;2023-05-17T03:58:10;6.70;100.00
15630;DHT22;7914;50.842;0.166;2023-05-17T04:00:35;6.60;100.00
15630;DHT22;7914;50.842;0.166;2023-05-17T04:03:01;6.60;100.00
15630;DHT22;7914;50.842;0.166;2023-05-17T04:05:27;6.60;100.00
15630;DHT22;7914;50.842;0.166;2023-05-17T04:07:53;6.60;100.00
15630;DHT22;7914;50.842;0.166;2023-05-17T04:10:19;6.60;100.00
15630;DHT22;7914;50.842;0.166;2023-05-17T04:12:44;6.60;100.00
15630;DHT22;7914;50.842;0.166;2023-05-17T04:15:10;6.60;100.00
15630;DHT22;7914;50.842;0.166;2023-05-17T04:17:36;6.60;100.00
15630;DHT22;7914;50.842;0.166;2023-05-17T04:20:03;6.70;100.00
15630;DHT22;7914;50.842;0.166;2023-05-17T04:22:31;6.70;100.00
15630;DHT22;7914;50.842;0.166;2023-05-17T04:24:57;6.70;100.00
15630;DHT22;7914;50.842;0.166;2023-05-17T04:27:23;6.70;100.00
15630;DHT22;7914;50.842;0.166;2023-05-17T04:29:48;6.80;100.00
15630;DHT22;7914;50.842;0.166;2023-05-17T04:32:14;6.80;100.00
15630;DHT22;7914;50.842;0.166;2023-05-17T04:34:41;6.90;100.00
15630;DHT22;7914;50.842;0.166;2023-05-17T04:37:07;7.00;100.00
15630;DHT22;7914;50.842;0.166;2023-05-17T04:39:33;7.10;100.00
15630;DHT22;7914;50.842;0.166;2023-05-17T04:41:59;7.30;100.00
15630;DHT22;7914;50.842;0.166;2023-05-17T04:44:25;7.40;100.00
15630;DHT22;7914;50.842;0.166;2023-05-17T04:46:51;7.50;99.70
15630;DHT22;7914;50.842;0.166;2023-05-17T04:49:17;7.70;99.00
15630;DHT22;7914;50.842;0.166;2023-05-17T04:51:43;7.90;98.20
15630;DHT22;7914;50.842;0.166;2023-05-17T04:54:09;8.10;97.50
15630;DHT22;7914;50.842;0.166;2023-05-17T04:56:35;8.40;96.60
15630;DHT22;7914;50.842;0.166;2023-05-17T04:59:03;8.70;95.70
15630;DHT22;7914;50.842;0.166;2023-05-17T05:01:29;9.00;93.40
15630;DHT22;7914;50.842;0.166;2023-05-17T05:03:59;9.70;92.40
15630;DHT22;7914;50.842;0.166;2023-05-17T05:06:31;10.90;87.00
15630;DHT22;7914;50.842;0.166;2023-05-17T05:08:57;11.80;82.20
15630;DHT22;7914;50.842;0.166;2023-05-17T05:11:22;12.70;78.60
15630;DHT22;7914;50.842;0.166;2023-05-17T05:13:48;13.10;75.30
15630;DHT22;7914;50.842;0.166;2023-05-17T05:16:14;13.00;75.70
15630;DHT22;7914;50.842;0.166;2023-05-17T05:18:40;13.00;75.60
15630;DHT22;7914;50.842;0.166;2023-05-17T05:21:05;13.70;74.20
15630;DHT22;7914;50.842;0.166;2023-05-17T05:23:31;14.70;71.20
15630;DHT22;7914;50.842;0.166;2023-05-17T05:25:57;15.60;67.00
15630;DHT22;7914;50.842;0.166;2023-05-17T05:28:22;15.70;65.50
15630;DHT22;7914;50.842;0.166;2023-05-17T05:30:48;14.50;68.30
15630;DHT22;7914;50.842;0.166;2023-05-17T05:33:14;13.10;73.20
15630;DHT22;7914;50.842;0.166;2023-05-17T05:35:40;12.10;78.20
15630;DHT22;7914;50.842;0.166;2023-05-17T05:38:05;11.80;80.70
15630;DHT22;7914;50.842;0.166;2023-05-17T05:40:32;12.30;78.90
15630;DHT22;7914;50.842;0.166;2023-05-17T05:42:57;13.50;76.00
15630;DHT22;7914;50.842;0.166;2023-05-17T05:45:23;14.50;71.90
15630;DHT22;7914;50.842;0.166;2023-05-17T05:47:49;14.40;70.80
15630;DHT22;7914;50.842;0.166;2023-05-17T05:50:15;15.00;70.20
15630;DHT22;7914;50.842;0.166;2023-05-17T05:52:40;16.20;66.00
15630;DHT22;7914;50.842;0.166;2023-05-17T05:55:06;15.40;67.60
15630;DHT22;7914;50.842;0.166;2023-05-17T05:57:32;14.60;70.20
15630;DHT22;7914;50.842;0.166;2023-05-17T05:59:58;14.10;72.30
15630;DHT22;7914;50.842;0.166;2023-05-17T06:02:23;13.80;74.60
15630;DHT22;7914;50.842;0.166;2023-05-17T06:04:49;13.80;75.60
15630;DHT22;7914;50.842;0.166;2023-05-17T06:07:15;13.50;76.30
15630;DHT22;7914;50.842;0.166;2023-05-17T06:09:41;13.60;76.20
15630;DHT22;7914;50.842;0.166;2023-05-17T06:12:07;13.60;77.30
15630;DHT22;7914;50.842;0.166;2023-05-17T06:14:33;13.40;78.90
15630;DHT22;7914;50.842;0.166;2023-05-17T06:16:58;13.70;78.00
15630;DHT22;7914;50.842;0.166;2023-05-17T06:19:24;14.00;77.50
15630;DHT22;7914;50.842;0.166;2023-05-17T06:21:50;14.40;75.70
15630;DHT22;7914;50.842;0.166;2023-05-17T06:24:16;14.30;75.80
15630;DHT22;7914;50.842;0.166;2023-05-17T06:26:42;14.50;76.10
15630;DHT22;7914;50.842;0.166;2023-05-17T06:29:11;14.90;74.00
15630;DHT22;7914;50.842;0.166;2023-05-17T06:31:37;15.80;71.60
15630;DHT22;7914;50.842;0.166;2023-05-17T06:34:03;16.50;68.50
15630;DHT22;7914;50.842;0.166;2023-05-17T06:36:29;16.70;67.50
15630;DHT22;7914;50.842;0.166;2023-05-17T06:38:54;16.10;68.90
15630;DHT22;7914;50.842;0.166;2023-05-17T06:41:20;15.50;70.80
15630;DHT22;7914;50.842;0.166;2023-05-17T06:43:46;14.60;75.30
15630;DHT22;7914;50.842;0.166;2023-05-17T06:46:12;14.50;74.80
15630;DHT22;7914;50.842;0.166;2023-05-17T06:48:38;14.70;74.90
15630;DHT22;7914;50.842;0.166;2023-05-17T06:51:03;14.60;74.80
15630;DHT22;7914;50.842;0.166;2023-05-17T06:53:32;14.40;75.90
15630;DHT22;7914;50.842;0.166;2023-05-17T06:55:58;14.30;76.00
15630;DHT22;7914;50.842;0.166;2023-05-17T06:58:24;14.30;77.00
15630;DHT22;7914;50.842;0.166;2023-05-17T07:00:49;14.50;76.40
15630;DHT22;7914;50.842;0.166;2023-05-17T07:03:15;15.10;75.50
15630;DHT22;7914;50.842;0.166;2023-05-17T07:05:41;16.20;70.40
15630;DHT22;7914;50.842;0.166;2023-05-17T07:08:07;17.10;66.40
15630;DHT22;7914;50.842;0.166;2023-05-17T07:10:32;16.70;68.70
15630;DHT22;7914;50.842;0.166;2023-05-17T07:12:58;16.30;71.40
15630;DHT22;7914;50.842;0.166;2023-05-17T07:15:24;18.10;64.70
15630;DHT22;7914;50.842;0.166;2023-05-17T07:17:49;18.30;63.20
15630;DHT22;7914;50.842;0.166;2023-05-17T07:20:15;17.30;66.70
15630;DHT22;7914;50.842;0.166;2023-05-17T07:22:41;16.60;67.90
15630;DHT22;7914;50.842;0.166;2023-05-17T07:25:07;16.60;68.20
15630;DHT22;7914;50.842;0.166;2023-05-17T07:27:33;17.00;69.10
15630;DHT22;7914;50.842;0.166;2023-05-17T07:30:00;18.50;64.20
15630;DHT22;7914;50.842;0.166;2023-05-17T07:32:26;21.20;56.10
15630;DHT22;7914;50.842;0.166;2023-05-17T07:34:52;21.70;53.70
15630;DHT22;7914;50.842;0.166;2023-05-17T07:37:17;21.60;53.40
15630;DHT22;7914;50.842;0.166;2023-05-17T07:39:43;22.10;52.90
15630;DHT22;7914;50.842;0.166;2023-05-17T07:42:09;23.60;49.50
15630;DHT22;7914;50.842;0.166;2023-05-17T07:44:34;24.00;49.10
15630;DHT22;7914;50.842;0.166;2023-05-17T07:47:00;25.00;45.30
15630;DHT22;7914;50.842;0.166;2023-05-17T07:49:26;24.80;46.40
15630;DHT22;7914;50.842;0.166;2023-05-17T07:51:52;24.90;45.30
15630;DHT22;7914;50.842;0.166;2023-05-17T07:54:23;23.80;48.00
15630;DHT22;7914;50.842;0.166;2023-05-17T07:56:50;23.00;50.80
15630;DHT22;7914;50.842;0.166;2023-05-17T07:59:17;23.10;49.60
15630;DHT22;7914;50.842;0.166;2023-05-17T08:01:43;22.40;51.10
15630;DHT22;7914;50.842;0.166;2023-05-17T08:04:09;21.10;54.80
15630;DHT22;7914;50.842;0.166;2023-05-17T08:06:35;20.90;55.30
15630;DHT22;7914;50.842;0.166;2023-05-17T08:09:01;20.80;54.90
15630;DHT22;7914;50.842;0.166;2023-05-17T08:11:27;20.40;57.00
15630;DHT22;7914;50.842;0.166;2023-05-17T08:13:52;19.70;59.60
15630;DHT22;7914;50.842;0.166;2023-05-17T08:16:18;19.60;59.30
15630;DHT22;7914;50.842;0.166;2023-05-17T08:18:44;19.50;59.90
15630;DHT22;7914;50.842;0.166;2023-05-17T08:21:09;19.20;61.80
15630;DHT22;7914;50.842;0.166;2023-05-17T08:23:35;18.90;61.40
15630;DHT22;7914;50.842;0.166;2023-05-17T08:26:01;18.70;61.70
15630;DHT22;7914;50.842;0.166;2023-05-17T08:28:27;18.40;64.30
15630;DHT22;7914;50.842;0.166;2023-05-17T08:30:52;18.10;66.30
15630;DHT22;7914;50.842;0.166;2023-05-17T08:33:18;18.20;65.10
15630;DHT22;7914;50.842;0.166;2023-05-17T08:35:46;18.20;65.40
15630;DHT22;7914;50.842;0.166;2023-05-17T08:38:13;18.10;66.50
15630;DHT22;7914;50.842;0.166;2023-05-17T08:40:39;18.10;65.30
15630;DHT22;7914;50.842;0.166;2023-05-17T08:43:05;18.20;66.30
15630;DHT22;7914;50.842;0.166;2023-05-17T08:45:32;18.00;68.70
15630;DHT22;7914;50.842;0.166;2023-05-17T08:47:59;18.30;65.50
15630;DHT22;7914;50.842;0.166;2023-05-17T08:50:27;18.50;65.60
15630;DHT22;7914;50.842;0.166;2023-05-17T08:52:55;18.60;65.70
15630;DHT22;7914;50.842;0.166;2023-05-17T08:55:22;18.60;67.50
15630;DHT22;7914;50.842;0.166;2023-05-17T08:57:49;18.80;66.50
15630;DHT22;7914;50.842;0.166;2023-05-17T09:00:18;18.90;65.90
15630;DHT22;7914;50.842;0.166;2023-05-17T09:02:46;19.00;64.50
15630;DHT22;7914;50.842;0.166;2023-05-17T09:05:13;19.20;62.90
15630;DHT22;7914;50.842;0.166;2023-05-17T09:07:39;19.50;63.30
15630;DHT22;7914;50.842;0.166;2023-05-17T09:10:07;19.50;61.90
15630;DHT22;7914;50.842;0.166;2023-05-17T09:12:33;19.60;62.90
15630;DHT22;7914;50.842;0.166;2023-05-17T09:15:15;19.70;62.30
15630;DHT22;7914;50.842;0.166;2023-05-17T09:17:51;19.60;60.70
15630;DHT22;7914;50.842;0.166;2023-05-17T09:20:24;19.40;63.20
15630;DHT22;7914;50.842;0.166;2023-05-17T09:22:59;19.70;62.10
15630;DHT22;7914;50.842;0.166;2023-05-17T09:25:27;19.90;61.00
15630;DHT22;7914;50.842;0.166;2023-05-17T09:27:54;20.10;59.10
15630;DHT22;7914;50.842;0.166;2023-05-17T09:30:29;20.10;59.80
15630;DHT22;7914;50.842;0.166;2023-05-17T09:32:55;20.20;59.10
15630;DHT22;7914;50.842;0.166;2023-05-17T09:35:31;20.10;60.40
15630;DHT22;7914;50.842;0.166;2023-05-17T09:38:08;20.00;60.60
15630;DHT22;7914;50.842;0.166;2023-05-17T09:40:39;20.20;58.30
15630;DHT22;7914;50.842;0.166;2023-05-17T09:43:05;20.10;58.30
15630;DHT22;7914;50.842;0.166;2023-05-17T09:45:31;19.90;56.50
15630;DHT22;7914;50.842;0.166;2023-05-17T09:48:09;20.00;59.40
15630;DHT22;7914;50.842;0.166;2023-05-17T09:50:35;20.00;59.70
15630;DHT22;7914;50.842;0.166;2023-05-17T09:53:01;20.00;58.70
15630;DHT22;7914;50.842;0.166;2023-05-17T09:55:26;20.10;58.50
15630;DHT22;7914;50.842;0.166;2023-05-17T09:58:01;20.30;57.90
15630;DHT22;7914;50.842;0.166;2023-05-17T10:00:28;20.10;56.50
15630;DHT22;7914;50.842;0.166;2023-05-17T10:02:54;20.00;60.50
15630;DHT22;7914;50.842;0.166;2023-05-17T10:05:20;20.30;60.00
15630;DHT22;7914;50.842;0.166;2023-05-17T10:07:49;20.50;56.20
15630;DHT22;7914;50.842;0.166;2023-05-17T10:10:15;20.60;56.80
15630;DHT22;7914;50.842;0.166;2023-05-17T10:12:43;20.60;56.30
15630;DHT22;7914;50.842;0.166;2023-05-17T10:15:10;20.60;54.10
15630;DHT22;7914;50.842;0.166;2023-05-17T10:17:37;20.30;56.40
15630;DHT22;7914;50.842;0.166;2023-05-17T10:20:07;20.50;57.40
15630;DHT22;7914;50.842;0.166;2023-05-17T10:22:34;20.70;56.20
15630;DHT22;7914;50.842;0.166;2023-05-17T10:25:00;20.90;54.90
15630;DHT22;7914;50.842;0.166;2023-05-17T10:27:26;20.70;57.20
15630;DHT22;7914;50.842;0.166;2023-05-17T10:29:52;20.50;56.20
15630;DHT22;7914;50.842;0.166;2023-05-17T10:32:20;20.30;56.80
15630;DHT22;7914;50.842;0.166;2023-05-17T10:34:51;19.80;56.30
15630;DHT22;7914;50.842;0.166;2023-05-17T10:37:18;20.00;58.30
15630;DHT22;7914;50.842;0.166;2023-05-17T10:39:45;20.00;58.10
15630;DHT22;7914;50.842;0.166;2023-05-17T10:42:15;19.90;56.20
15630;DHT22;7914;50.842;0.166;2023-05-17T10:44:42;19.00;59.70
15630;DHT22;7914;50.842;0.166;2023-05-17T10:47:09;19.00;64.40
15630;DHT22;7914;50.842;0.166;2023-05-17T10:49:37;18.50;65.00
15630;DHT22;7914;50.842;0.166;2023-05-17T10:52:14;18.40;64.80
15630;DHT22;7914;50.842;0.166;2023-05-17T10:54:42;18.00;67.80
15630;DHT22;7914;50.842;0.166;2023-05-17T10:57:09;17.40;68.80
15630;DHT22;7914;50.842;0.166;2023-05-17T10:59:56;16.90;71.60
15630;DHT22;7914;50.842;0.166;2023-05-17T11:02:23;16.80;72.30
15630;DHT22;7914;50.842;0.166;2023-05-17T11:04:49;16.80;73.30
15630;DHT22;7914;50.842;0.166;2023-05-17T11:07:26;17.10;71.20
15630;DHT22;7914;50.842;0.166;2023-05-17T11:10:06;16.90;72.70
15630;DHT22;7914;50.842;0.166;2023-05-17T11:15:11;17.90;68.50
15630;DHT22;7914;50.842;0.166;2023-05-17T11:22:42;18.70;66.50
15630;DHT22;7914;50.842;0.166;2023-05-17T11:25:10;19.50;64.90
15630;DHT22;7914;50.842;0.166;2023-05-17T11:27:46;20.00;66.40
15630;DHT22;7914;50.842;0.166;2023-05-17T11:30:23;20.00;63.00
15630;DHT22;7914;50.842;0.166;2023-05-17T11:32:58;20.50;63.30
15630;DHT22;7914;50.842;0.166;2023-05-17T11:35:37;20.40;60.20
15630;DHT22;7914;50.842;0.166;2023-05-17T11:38:22;20.30;61.40
15630;DHT22;7914;50.842;0.166;2023-05-17T11:40:53;20.10;61.80
15630;DHT22;7914;50.842;0.166;2023-05-17T11:43:23;20.10;64.00
15630;DHT22;7914;50.842;0.166;2023-05-17T11:45:54;20.90;60.50
15630;DHT22;7914;50.842;0.166;2023-05-17T11:48:23;20.20;61.10
15630;DHT22;7914;50.842;0.166;2023-05-17T11:50:50;20.60;60.10
15630;DHT22;7914;50.842;0.166;2023-05-17T11:53:17;20.80;59.50
15630;DHT22;7914;50.842;0.166;2023-05-17T11:55:45;20.70;58.50
15630;DHT22;7914;50.842;0.166;2023-05-17T11:58:34;20.60;58.90
15630;DHT22;7914;50.842;0.166;2023-05-17T12:00:59;20.70;58.80
15630;DHT22;7914;50.842;0.166;2023-05-17T12:03:27;20.70;56.30
15630;DHT22;7914;50.842;0.166;2023-05-17T12:06:20;20.20;57.00
15630;DHT22;7914;50.842;0.166;2023-05-17T12:08:46;20.20;58.20
15630;DHT22;7914;50.842;0.166;2023-05-17T12:11:13;19.80;59.70
15630;DHT22;7914;50.842;0.166;2023-05-17T12:13:40;19.70;60.00
15630;DHT22;7914;50.842;0.166;2023-05-17T12:16:12;19.40;59.90
15630;DHT22;7914;50.842;0.166;2023-05-17T12:18:43;19.30;62.30
15630;DHT22;7914;50.842;0.166;2023-05-17T12:21:12;19.40;59.70
15630;DHT22;7914;50.842;0.166;2023-05-17T12:23:40;19.50;59.60
15630;DHT22;7914;50.842;0.166;2023-05-17T12:26:09;19.40;59.70
15630;DHT22;7914;50.842;0.166;2023-05-17T12:28:43;19.40;60.80
15630;DHT22;7914;50.842;0.166;2023-05-17T12:31:14;19.50;60.00
15630;DHT22;7914;50.842;0.166;2023-05-17T12:33:42;19.30;60.00
15630;DHT22;7914;50.842;0.166;2023-05-17T12:36:09;19.30;60.80
15630;DHT22;7914;50.842;0.166;2023-05-17T12:38:38;19.60;61.50
15630;DHT22;7914;50.842;0.166;2023-05-17T12:41:06;19.40;59.50
15630;DHT22;7914;50.842;0.166;2023-05-17T12:43:33;19.30;60.10
15630;DHT22;7914;50.842;0.166;2023-05-17T12:46:08;19.10;60.10
15630;DHT22;7914;50.842;0.166;2023-05-17T12:48:38;18.70;61.50
15630;DHT22;7914;50.842;0.166;2023-05-17T12:51:09;18.30;62.40
15630;DHT22;7914;50.842;0.166;2023-05-17T12:56:17;18.00;64.10
15630;DHT22;7914;50.842;0.166;2023-05-17T12:58:43;18.70;65.40
15630;DHT22;7914;50.842;0.166;2023-05-17T13:01:09;19.40;62.90
15630;DHT22;7914;50.842;0.166;2023-05-17T13:03:39;19.70;61.00
15630;DHT22;7914;50.842;0.166;2023-05-17T13:06:07;19.70;61.10
15630;DHT22;7914;50.842;0.166;2023-05-17T13:08:34;19.70;59.30
15630;DHT22;7914;50.842;0.166;2023-05-17T13:11:12;18.90;59.60
15630;DHT22;7914;50.842;0.166;2023-05-17T13:13:39;19.00;60.10
15630;DHT22;7914;50.842;0.166;2023-05-17T13:16:06;19.10;63.00
15630;DHT22;7914;50.842;0.166;2023-05-17T13:18:49;19.70;61.80
15630;DHT22;7914;50.842;0.166;2023-05-17T13:21:16;19.20;61.30
15630;DHT22;7914;50.842;0.166;2023-05-17T13:23:44;18.70;63.10
15630;DHT22;7914;50.842;0.166;2023-05-17T13:26:10;18.20;64.40
15630;DHT22;7914;50.842;0.166;2023-05-17T13:28:37;18.00;65.80
15630;DHT22;7914;50.842;0.166;2023-05-17T13:31:03;17.70;66.10
15630;DHT22;7914;50.842;0.166;2023-05-17T13:33:29;17.60;67.60
15630;DHT22;7914;50.842;0.166;2023-05-17T13:35:56;17.50;66.20
15630;DHT22;7914;50.842;0.166;2023-05-17T13:38:21;17.00;66.90
15630;DHT22;7914;50.842;0.166;2023-05-17T13:40:47;16.90;68.60
15630;DHT22;7914;50.842;0.166;2023-05-17T13:43:13;17.10;68.80
15630;DHT22;7914;50.842;0.166;2023-05-17T13:45:39;17.00;69.50
15630;DHT22;7914;50.842;0.166;2023-05-17T13:48:05;16.80;69.00
15630;DHT22;7914;50.842;0.166;2023-05-17T13:50:31;16.60;70.20
15630;DHT22;7914;50.842;0.166;2023-05-17T13:52:57;16.40;71.50
15630;DHT22;7914;50.842;0.166;2023-05-17T13:55:26;16.50;72.20
15630;DHT22;7914;50.842;0.166;2023-05-17T13:57:52;16.60;72.60
15630;DHT22;7914;50.842;0.166;2023-05-17T14:00:18;16.60;72.30
15630;DHT22;7914;50.842;0.166;2023-05-17T14:02:46;16.60;72.00
15630;DHT22;7914;50.842;0.166;2023-05-17T14:05:12;16.60;72.70
15630;DHT22;7914;50.842;0.166;2023-05-17T14:07:39;16.30;73.00
15630;DHT22;7914;50.842;0.166;2023-05-17T14:10:08;16.10;73.80
15630;DHT22;7914;50.842;0.166;2023-05-17T14:12:34;16.30;74.00
15630;DHT22;7914;50.842;0.166;2023-05-17T14:15:01;16.20;74.10
15630;DHT22;7914;50.842;0.166;2023-05-17T14:17:27;15.90;74.20
15630;DHT22;7914;50.842;0.166;2023-05-17T14:19:53;15.80;75.60
15630;DHT22;7914;50.842;0.166;2023-05-17T14:22:19;15.70;75.90
15630;DHT22;7914;50.842;0.166;2023-05-17T14:24:45;15.60;76.40
15630;DHT22;7914;50.842;0.166;2023-05-17T14:27:11;15.80;75.80
15630;DHT22;7914;50.842;0.166;2023-05-17T14:29:36;15.70;75.80
15630;DHT22;7914;50.842;0.166;2023-05-17T14:32:02;15.70;75.90
15630;DHT22;7914;50.842;0.166;2023-05-17T14:34:29;15.60;76.70
15630;DHT22;7914;50.842;0.166;2023-05-17T14:36:55;15.50;76.60
15630;DHT22;7914;50.842;0.166;2023-05-17T14:39:21;15.60;76.50
15630;DHT22;7914;50.842;0.166;2023-05-17T14:41:47;15.50;76.80
15630;DHT22;7914;50.842;0.166;2023-05-17T14:44:13;15.50;77.50
15630;DHT22;7914;50.842;0.166;2023-05-17T14:46:39;15.50;76.50
15630;DHT22;7914;50.842;0.166;2023-05-17T14:49:04;15.50;77.60
15630;DHT22;7914;50.842;0.166;2023-05-17T14:51:31;15.60;77.50
15630;DHT22;7914;50.842;0.166;2023-05-17T14:53:57;16.10;76.40
15630;DHT22;7914;50.842;0.166;2023-05-17T14:56:23;16.40;75.00
15630;DHT22;7914;50.842;0.166;2023-05-17T14:58:50;16.40;73.10
15630;DHT22;7914;50.842;0.166;2023-05-17T15:01:16;16.40;73.70
15630;DHT22;7914;50.842;0.166;2023-05-17T15:03:42;16.80;72.20
15630;DHT22;7914;50.842;0.166;2023-05-17T15:06:08;17.10;72.40
15630;DHT22;7914;50.842;0.166;2023-05-17T15:08:34;17.30;70.00
15630;DHT22;7914;50.842;0.166;2023-05-17T15:11:00;17.10;69.90
15630;DHT22;7914;50.842;0.166;2023-05-17T15:13:26;17.00;71.00
15630;DHT22;7914;50.842;0.166;2023-05-17T15:15:51;17.00;70.80
15630;DHT22;7914;50.842;0.166;2023-05-17T15:18:17;17.00;70.80
15630;DHT22;7914;50.842;0.166;2023-05-17T15:20:43;16.80;70.90
15630;DHT22;7914;50.842;0.166;2023-05-17T15:23:09;16.80;70.70
15630;DHT22;7914;50.842;0.166;2023-05-17T15:25:35;16.80;70.30
15630;DHT22;7914;50.842;0.166;2023-05-17T15:28:01;16.70;70.80
15630;DHT22;7914;50.842;0.166;2023-05-17T15:30:26;16.80;70.70
15630;DHT22;7914;50.842;0.166;2023-05-17T15:32:54;16.80;71.10
15630;DHT22;7914;50.842;0.166;2023-05-17T15:35:20;16.90;71.70
15630;DHT22;7914;50.842;0.166;2023-05-17T15:37:46;17.10;71.50
15630;DHT22;7914;50.842;0.166;2023-05-17T15:40:12;17.20;70.20
15630;DHT22;7914;50.842;0.166;2023-05-17T15:42:39;17.30;69.10
15630;DHT22;7914;50.842;0.166;2023-05-17T15:45:05;17.00;69.90
15630;DHT22;7914;50.842;0.166;2023-05-17T15:47:31;17.30;69.00
15630;DHT22;7914;50.842;0.166;2023-05-17T15:49:58;17.50;68.50
15630;DHT22;7914;50.842;0.166;2023-05-17T15:52:24;17.60;69.00
15630;DHT22;7914;50.842;0.166;2023-05-17T15:54:50;17.60;68.50
15630;DHT22;7914;50.842;0.166;2023-05-17T15:57:18;17.20;69.10
15630;DHT22;7914;50.842;0.166;2023-05-17T15:59:44;17.10;70.30
15630;DHT22;7914;50.842;0.166;2023-05-17T16:02:10;16.60;71.10
15630;DHT22;7914;50.842;0.166;2023-05-17T16:04:36;16.30;72.70